createdAt,value
2018-09-15T00:00:55.559Z,24.63
2018-09-15T00:03:24.153Z,25.07
2018-09-15T00:05:52.290Z,23.67
2018-09-15T00:08:20.374Z,26.07
2018-09-15T00:10:48.778Z,24.17
2018-09-15T00:13:17.280Z,26.53
2018-09-15T00:15:45.380Z,24.07
2018-09-15T00:18:15.054Z,21.60
2018-09-15T00:20:43.167Z,22.53
2018-09-15T00:23:11.878Z,22.60
2018-09-15T00:25:40.710Z,22.30
2018-09-15T00:28:09.495Z,23.67
2018-09-15T00:30:37.574Z,24.00
2018-09-15T00:33:05.751Z,21.87
2018-09-15T00:35:33.954Z,23.70
2018-09-15T00:38:02.085Z,25.53
2018-09-15T00:40:30.194Z,23.40
2018-09-15T00:42:58.337Z,23.73
2018-09-15T00:45:26.474Z,22.40
2018-09-15T00:47:54.558Z,22.90
2018-09-15T00:50:22.659Z,26.47
2018-09-15T00:52:50.753Z,24.60
2018-09-15T00:55:18.855Z,24.83
2018-09-15T00:57:46.937Z,23.50
2018-09-15T01:00:15.029Z,21.83
2018-09-15T01:02:43.105Z,24.37
2018-09-15T01:05:11.182Z,25.67
2018-09-15T01:07:39.248Z,23.53
2018-09-15T01:10:07.521Z,27.93
2018-09-15T01:12:35.611Z,21.57
2018-09-15T01:15:03.718Z,26.07
2018-09-15T01:17:31.787Z,25.00
2018-09-15T01:19:59.903Z,23.53
2018-09-15T01:22:27.978Z,27.43
2018-09-15T01:24:56.077Z,23.30
2018-09-15T01:27:24.140Z,22.00
2018-09-15T01:29:52.230Z,21.27
2018-09-15T01:32:20.322Z,21.90
2018-09-15T01:34:48.449Z,20.70
2018-09-15T01:37:16.662Z,20.17
2018-09-15T01:39:44.736Z,22.47
2018-09-15T01:42:12.807Z,20.57
2018-09-15T01:44:40.929Z,20.27
2018-09-15T01:47:09.016Z,20.90
2018-09-15T01:49:37.105Z,22.03
2018-09-15T01:52:05.193Z,24.63
2018-09-15T01:54:33.305Z,20.63
2018-09-15T01:57:01.373Z,21.30
2018-09-15T01:59:29.466Z,24.57
2018-09-15T02:01:57.552Z,23.00
2018-09-15T02:04:25.635Z,24.50
2018-09-15T02:06:53.798Z,24.20
2018-09-15T02:09:21.877Z,19.97
2018-09-15T02:11:49.936Z,20.63
2018-09-15T02:14:18.052Z,20.73
2018-09-15T02:16:46.124Z,21.60
2018-09-15T02:19:14.229Z,19.67
2018-09-15T02:21:42.324Z,21.37
2018-09-15T02:24:10.429Z,21.07
2018-09-15T02:26:38.502Z,18.93
2018-09-15T02:29:06.629Z,19.63
2018-09-15T02:31:34.726Z,19.63
2018-09-15T02:34:02.817Z,19.93
2018-09-15T02:36:30.894Z,20.97
2018-09-15T02:38:58.989Z,21.10
2018-09-15T02:41:27.080Z,20.00
2018-09-15T02:43:55.240Z,20.77
2018-09-15T02:46:23.322Z,21.40
2018-09-15T02:48:51.422Z,25.27
2018-09-15T02:51:19.518Z,22.70
2018-09-15T02:53:47.607Z,24.77
2018-09-15T02:56:15.690Z,28.53
2018-09-15T02:58:43.765Z,26.47
2018-09-15T03:01:11.877Z,24.33
2018-09-15T03:03:39.972Z,22.50
2018-09-15T03:06:08.070Z,22.73
2018-09-15T03:08:36.169Z,23.07
2018-09-15T03:11:04.293Z,24.93
2018-09-15T03:13:32.396Z,24.43
2018-09-15T03:16:00.505Z,22.30
2018-09-15T03:18:28.581Z,22.93
2018-09-15T03:20:56.648Z,22.97
2018-09-15T03:23:24.765Z,22.90
2018-09-15T03:25:52.858Z,23.43
2018-09-15T03:28:20.920Z,23.70
2018-09-15T03:30:49.069Z,22.27
2018-09-15T03:33:17.246Z,21.87
2018-09-15T03:35:45.325Z,20.10
2018-09-15T03:38:13.473Z,20.20
2018-09-15T03:40:41.553Z,23.00
2018-09-15T03:43:09.625Z,25.33
2018-09-15T03:45:37.705Z,22.20
2018-09-15T03:48:05.812Z,21.60
2018-09-15T03:50:33.968Z,21.03
2018-09-15T03:53:02.053Z,21.20
2018-09-15T03:55:30.144Z,22.00
2018-09-15T03:57:58.210Z,23.33
2018-09-15T04:00:26.303Z,19.07
2018-09-15T04:02:54.382Z,21.17
2018-09-15T04:05:22.486Z,21.73
2018-09-15T04:07:50.553Z,19.43
2018-09-15T04:10:18.629Z,23.03
2018-09-15T04:12:47.085Z,20.40
2018-09-15T04:15:15.386Z,20.27
2018-09-15T04:17:43.538Z,19.40
2018-09-15T04:20:11.652Z,20.03
2018-09-15T04:22:39.892Z,21.40
2018-09-15T04:25:08.015Z,22.27
2018-09-15T04:27:36.141Z,22.33
2018-09-15T04:30:04.566Z,24.10
2018-09-15T04:32:32.805Z,21.83
2018-09-15T04:35:00.869Z,22.60
2018-09-15T04:37:28.989Z,21.50
2018-09-15T04:39:57.073Z,20.93
2018-09-15T04:42:31.782Z,21.20
2018-09-15T04:44:59.872Z,22.13
2018-09-15T04:47:27.940Z,20.60
2018-09-15T04:49:56.032Z,21.03
2018-09-15T04:52:24.109Z,20.37
2018-09-15T04:54:52.280Z,23.17
2018-09-15T04:57:20.359Z,22.70
2018-09-15T04:59:48.470Z,21.40
2018-09-15T05:02:16.541Z,21.73
2018-09-15T05:04:44.705Z,20.90
2018-09-15T05:07:12.798Z,22.07
2018-09-15T05:09:40.874Z,23.07
2018-09-15T05:12:08.956Z,23.27
2018-09-15T05:14:37.023Z,23.13
2018-09-15T05:17:05.106Z,23.07
2018-09-15T05:19:33.240Z,20.53
2018-09-15T05:22:01.339Z,19.67
2018-09-15T05:24:29.400Z,22.20
2018-09-15T05:26:57.463Z,20.40
2018-09-15T05:29:25.566Z,22.90
2018-09-15T05:31:53.630Z,21.50
2018-09-15T05:34:21.715Z,20.87
2018-09-15T05:36:50.285Z,21.67
2018-09-15T05:39:18.357Z,22.33
2018-09-15T05:41:46.429Z,18.67
2018-09-15T05:44:14.496Z,20.40
2018-09-15T05:46:42.628Z,21.37
2018-09-15T05:49:10.720Z,20.37
2018-09-15T05:51:38.949Z,21.10
2018-09-15T05:54:07.069Z,20.37
2018-09-15T05:56:35.243Z,20.53
2018-09-15T05:59:03.349Z,21.23
2018-09-15T06:01:31.444Z,21.90
2018-09-15T06:03:59.701Z,20.40
2018-09-15T06:06:27.783Z,22.17
2018-09-15T06:08:55.861Z,21.87
2018-09-15T06:11:23.949Z,21.03
2018-09-15T06:13:52.044Z,20.07
2018-09-15T06:16:20.109Z,20.00
2018-09-15T06:18:48.232Z,20.67
2018-09-15T06:21:16.338Z,21.00
2018-09-15T06:23:45.380Z,19.70
2018-09-15T06:26:13.926Z,19.40
2018-09-15T06:28:42.331Z,22.57
2018-09-15T06:31:10.458Z,18.60
2018-09-15T06:33:38.572Z,19.70
2018-09-15T06:36:06.637Z,19.83
2018-09-15T06:38:34.739Z,20.50
2018-09-15T06:41:02.838Z,17.47
2018-09-15T06:43:30.933Z,17.13
2018-09-15T06:45:59.116Z,18.00
2018-09-15T06:48:27.497Z,17.97
2018-09-15T06:50:55.658Z,17.97
2018-09-15T06:53:23.761Z,19.53
2018-09-15T06:55:51.869Z,19.13
2018-09-15T06:58:19.947Z,17.70
2018-09-15T07:00:48.062Z,18.27
2018-09-15T07:03:16.129Z,20.00
2018-09-15T07:05:44.198Z,18.00
2018-09-15T07:08:12.291Z,19.03
2018-09-15T07:10:40.360Z,19.47
2018-09-15T07:13:08.507Z,18.10
2018-09-15T07:15:36.606Z,19.07
2018-09-15T07:18:04.682Z,17.53
2018-09-15T07:20:32.777Z,17.33
2018-09-15T07:23:00.856Z,19.03
2018-09-15T07:25:28.994Z,18.10
2018-09-15T07:27:57.073Z,16.83
2018-09-15T07:30:25.166Z,15.07
2018-09-15T07:32:53.258Z,15.13
2018-09-15T07:35:21.330Z,14.03
2018-09-15T07:37:49.523Z,13.77
2018-09-15T07:40:17.550Z,14.30
2018-09-15T07:42:45.623Z,12.47
2018-09-15T07:45:13.692Z,12.30
2018-09-15T07:47:41.834Z,11.83
2018-09-15T07:50:09.922Z,13.43
2018-09-15T07:52:37.996Z,12.87
2018-09-15T07:55:06.064Z,11.37
2018-09-15T07:57:34.227Z,11.53
2018-09-15T08:00:02.205Z,10.20
2018-09-15T08:02:30.349Z,11.80
2018-09-15T08:04:58.567Z,12.40
2018-09-15T08:07:26.642Z,9.67
2018-09-15T08:09:54.774Z,11.07
2018-09-15T08:12:22.858Z,11.27
2018-09-15T08:14:50.965Z,10.73
2018-09-15T08:17:19.030Z,12.07
2018-09-15T08:19:47.137Z,9.90
2018-09-15T08:22:15.208Z,12.10
2018-09-15T08:24:43.389Z,9.13
2018-09-15T08:27:11.481Z,8.90
2018-09-15T08:29:39.604Z,9.33
2018-09-15T08:32:07.789Z,8.40
2018-09-15T08:34:35.857Z,10.90
2018-09-15T08:37:03.942Z,9.17
2018-09-15T08:39:32.015Z,9.70
2018-09-15T08:42:00.168Z,9.43
2018-09-15T08:44:28.249Z,9.63
2018-09-15T08:46:56.338Z,8.50
2018-09-15T08:49:24.427Z,8.97
2018-09-15T08:51:52.557Z,11.17
2018-09-15T08:54:20.748Z,10.70
2018-09-15T08:56:48.838Z,10.20
2018-09-15T08:59:16.928Z,11.73
2018-09-15T09:01:45.006Z,9.40
2018-09-15T09:04:13.829Z,10.20
2018-09-15T09:06:42.034Z,8.63
2018-09-15T09:09:11.491Z,7.37
2018-09-15T09:11:40.477Z,7.77
2018-09-15T09:14:08.617Z,8.67
2018-09-15T09:16:36.703Z,8.60
2018-09-15T09:19:04.858Z,7.73
2018-09-15T09:21:32.941Z,8.70
2018-09-15T09:24:01.035Z,8.37
2018-09-15T09:26:29.302Z,8.13
2018-09-15T09:28:57.257Z,6.77
2018-09-15T09:31:25.404Z,8.10
2018-09-15T09:33:53.489Z,6.77
2018-09-15T09:36:21.612Z,5.10
2018-09-15T09:38:49.698Z,7.90
2018-09-15T09:41:17.928Z,6.60
2018-09-15T09:43:46.166Z,10.87
2018-09-15T09:46:14.382Z,5.70
2018-09-15T09:48:42.519Z,5.93
2018-09-15T09:51:10.608Z,5.07
2018-09-15T09:53:38.710Z,5.57
2018-09-15T09:56:06.800Z,5.53
2018-09-15T09:58:34.959Z,4.43
2018-09-15T10:01:08.409Z,4.77
2018-09-15T10:03:37.609Z,5.30
2018-09-15T10:06:05.728Z,5.07
2018-09-15T10:08:33.943Z,5.13
2018-09-15T10:11:02.019Z,4.60
2018-09-15T10:13:30.202Z,3.73
2018-09-15T10:15:58.315Z,4.27
2018-09-15T10:18:26.393Z,3.13
2018-09-15T10:20:54.481Z,4.40
2018-09-15T10:23:22.569Z,4.87
2018-09-15T10:25:50.746Z,3.07
2018-09-15T10:28:18.849Z,3.60
2018-09-15T10:30:46.954Z,3.23
2018-09-15T10:33:15.090Z,2.33
2018-09-15T10:35:43.432Z,2.13
2018-09-15T10:38:11.590Z,4.67
2018-09-15T10:40:39.737Z,4.27
2018-09-15T10:43:08.493Z,4.60
2018-09-15T10:45:36.659Z,4.87
2018-09-15T10:48:04.957Z,3.33
2018-09-15T10:50:33.050Z,1.90
2018-09-15T10:53:01.246Z,3.07
2018-09-15T10:55:29.373Z,2.43
2018-09-15T10:57:57.506Z,1.97
2018-09-15T11:00:25.639Z,2.30
2018-09-15T11:02:53.749Z,1.83
2018-09-15T11:05:21.837Z,2.70
2018-09-15T11:07:49.914Z,2.80
2018-09-15T11:10:18.005Z,1.57
2018-09-15T11:12:46.102Z,2.30
2018-09-15T11:15:14.248Z,1.30
2018-09-15T11:17:42.341Z,4.00
2018-09-15T11:20:10.462Z,5.53
2018-09-15T11:22:38.612Z,2.60
2018-09-15T11:25:06.676Z,4.30
2018-09-15T11:27:34.948Z,2.60
2018-09-15T11:30:06.923Z,1.77
2018-09-15T11:32:35.091Z,1.40
2018-09-15T11:35:03.253Z,3.87
2018-09-15T11:37:32.075Z,1.30
2018-09-15T11:40:00.383Z,1.73
2018-09-15T11:42:29.194Z,2.03
2018-09-15T11:44:57.310Z,2.77
2018-09-15T11:47:25.374Z,3.07
2018-09-15T11:49:54.446Z,1.67
2018-09-15T11:52:22.521Z,2.47
2018-09-15T11:54:50.581Z,2.00
2018-09-15T11:57:18.658Z,2.20
2018-09-15T11:59:46.747Z,2.50
2018-09-15T12:02:14.841Z,2.93
2018-09-15T12:04:43.103Z,2.30
2018-09-15T12:07:11.226Z,3.03
2018-09-15T12:09:39.329Z,5.13
2018-09-15T12:12:07.389Z,1.73
2018-09-15T12:14:35.501Z,2.47
2018-09-15T12:17:03.562Z,1.70
2018-09-15T12:19:31.642Z,2.03
2018-09-15T12:21:59.757Z,1.30
2018-09-15T12:24:27.856Z,2.93
2018-09-15T12:26:55.925Z,1.83
2018-09-15T12:29:24.005Z,1.60
2018-09-15T12:31:52.069Z,2.27
2018-09-15T12:34:20.147Z,2.33
2018-09-15T12:36:48.218Z,1.50
2018-09-15T12:39:16.299Z,1.87
2018-09-15T12:41:44.418Z,4.33
2018-09-15T12:44:12.518Z,2.07
2018-09-15T12:46:40.730Z,3.63
2018-09-15T12:49:08.809Z,2.27
2018-09-15T12:51:36.886Z,2.47
2018-09-15T12:54:05.005Z,2.37
2018-09-15T12:56:33.072Z,1.83
2018-09-15T12:59:01.209Z,1.87
2018-09-15T13:01:29.308Z,1.80
2018-09-15T13:03:57.430Z,1.33
2018-09-15T13:06:25.555Z,2.07
2018-09-15T13:08:53.594Z,3.00
2018-09-15T13:11:21.681Z,1.77
2018-09-15T13:13:49.788Z,4.73
2018-09-15T13:16:17.939Z,3.57
2018-09-15T13:18:46.023Z,2.87
2018-09-15T13:21:14.123Z,1.30
2018-09-15T13:23:42.273Z,2.83
2018-09-15T13:26:10.330Z,1.33
2018-09-15T13:28:38.485Z,2.37
2018-09-15T13:31:06.557Z,1.33
2018-09-15T13:33:34.634Z,2.30
2018-09-15T13:36:02.749Z,1.57
2018-09-15T13:38:30.921Z,1.87
2018-09-15T13:40:58.980Z,3.10
2018-09-15T13:43:27.041Z,3.10
2018-09-15T13:45:55.153Z,3.53
2018-09-15T13:48:23.242Z,2.37
2018-09-15T13:50:51.322Z,1.90
2018-09-15T13:53:19.451Z,4.03
2018-09-15T13:55:47.501Z,1.47
2018-09-15T13:58:15.609Z,2.53
2018-09-15T14:00:43.710Z,1.77
2018-09-15T14:03:11.789Z,1.40
2018-09-15T14:05:39.916Z,3.00
2018-09-15T14:08:07.995Z,1.77
2018-09-15T14:10:36.196Z,1.40
2018-09-15T14:13:04.208Z,1.73
2018-09-15T14:15:32.290Z,2.33
2018-09-15T14:18:01.476Z,1.20
2018-09-15T14:20:29.552Z,1.53
2018-09-15T14:22:57.626Z,1.50
2018-09-15T14:25:25.686Z,3.13
2018-09-15T14:27:53.761Z,2.40
2018-09-15T14:30:21.823Z,1.83
2018-09-15T14:32:49.921Z,1.10
2018-09-15T14:35:18.045Z,1.27
2018-09-15T14:37:46.146Z,2.40
2018-09-15T14:40:14.214Z,2.80
2018-09-15T14:42:42.313Z,2.80
2018-09-15T14:45:10.382Z,3.63
2018-09-15T14:47:38.506Z,2.73
2018-09-15T14:50:06.633Z,1.77
2018-09-15T14:52:34.681Z,1.30
2018-09-15T14:55:02.826Z,1.30
2018-09-15T14:57:30.903Z,2.20
2018-09-15T14:59:58.956Z,1.77
2018-09-15T15:02:27.050Z,3.40
2018-09-15T15:04:55.174Z,1.23
2018-09-15T15:07:23.276Z,1.43
2018-09-15T15:09:51.386Z,2.13
2018-09-15T15:12:19.524Z,1.57
2018-09-15T15:14:47.708Z,1.97
2018-09-15T15:17:15.858Z,2.03
2018-09-15T15:19:44.040Z,1.43
2018-09-15T15:22:12.214Z,1.77
2018-09-15T15:24:40.352Z,1.50
2018-09-15T15:27:08.548Z,1.80
2018-09-15T15:29:36.731Z,65.53
2018-09-15T15:32:04.858Z,21.83
2018-09-15T15:34:33.011Z,6.37
2018-09-15T15:37:01.193Z,8.77
2018-09-15T15:39:29.363Z,4.07
2018-09-15T15:41:57.554Z,5.33
2018-09-15T15:44:25.721Z,26.40
2018-09-15T15:47:00.441Z,11.17
2018-09-15T15:49:28.704Z,17.17
2018-09-15T15:51:56.772Z,7.33
2018-09-15T15:54:24.848Z,14.87
2018-09-15T15:56:52.972Z,16.77
2018-09-15T15:59:21.038Z,22.07
2018-09-15T16:01:49.296Z,29.20
2018-09-15T16:04:17.332Z,38.67
2018-09-15T16:06:45.479Z,11.40
2018-09-15T16:09:14.344Z,59.47
2018-09-15T16:11:42.437Z,78.57
2018-09-15T16:14:10.545Z,67.80
2018-09-15T16:16:38.638Z,174.67
2018-09-15T16:19:06.725Z,178.70
2018-09-15T16:21:34.819Z,26.60
2018-09-15T16:24:03.182Z,13.17
2018-09-15T16:26:31.253Z,22.03
2018-09-15T16:28:59.341Z,14.13
2018-09-15T16:31:27.445Z,6.27
2018-09-15T16:33:56.176Z,3.87
2018-09-15T16:36:25.125Z,2.73
2018-09-15T16:38:53.193Z,3.57
2018-09-15T16:41:21.261Z,4.20
2018-09-15T16:43:49.322Z,2.50
2018-09-15T16:46:17.410Z,2.50
2018-09-15T16:48:45.457Z,2.23
2018-09-15T16:51:13.541Z,4.13
2018-09-15T16:53:41.616Z,2.13
2018-09-15T16:56:09.681Z,3.77
2018-09-15T16:58:37.766Z,3.37
2018-09-15T17:01:06.157Z,1.97
2018-09-15T17:03:34.298Z,3.93
2018-09-15T17:06:02.338Z,2.63
2018-09-15T17:08:30.501Z,3.23
2018-09-15T17:10:58.597Z,3.20
2018-09-15T17:13:26.699Z,2.60
2018-09-15T17:15:54.891Z,2.33
2018-09-15T17:18:22.987Z,2.50
2018-09-15T17:20:51.074Z,2.80
2018-09-15T17:23:19.192Z,3.40
2018-09-15T17:25:47.281Z,3.60
2018-09-15T17:28:15.378Z,3.03
2018-09-15T17:30:43.596Z,3.53
2018-09-15T17:33:11.700Z,3.63
2018-09-15T17:35:39.782Z,3.23
2018-09-15T17:38:07.878Z,2.50
2018-09-15T17:40:35.993Z,2.57
2018-09-15T17:43:04.093Z,2.37
2018-09-15T17:45:32.238Z,2.00
2018-09-15T17:48:00.275Z,3.17
2018-09-15T17:50:28.371Z,2.90
2018-09-15T17:52:56.521Z,1.60
2018-09-15T17:55:24.614Z,1.93
2018-09-15T17:57:52.721Z,1.80
2018-09-15T18:00:20.812Z,2.20
2018-09-15T18:02:48.928Z,2.37
2018-09-15T18:05:17.021Z,2.10
2018-09-15T18:07:45.159Z,2.97
2018-09-15T18:10:13.280Z,2.43
2018-09-15T18:12:41.353Z,2.27
2018-09-15T18:15:09.482Z,2.23
2018-09-15T18:17:37.565Z,2.77
2018-09-15T18:20:05.709Z,2.50
2018-09-15T18:22:33.833Z,2.30
2018-09-15T18:25:01.913Z,2.27
2018-09-15T18:27:30.022Z,2.07
2018-09-15T18:29:58.117Z,2.10
2018-09-15T18:32:26.209Z,3.03
2018-09-15T18:34:54.310Z,2.17
2018-09-15T18:37:22.399Z,4.80
2018-09-15T18:39:50.481Z,2.93
2018-09-15T18:42:18.554Z,2.40
2018-09-15T18:44:47.317Z,3.40
2018-09-15T18:47:15.418Z,3.03
2018-09-15T18:49:43.504Z,3.03
2018-09-15T18:52:11.564Z,2.73
2018-09-15T18:54:39.671Z,2.60
2018-09-15T18:57:07.846Z,3.67
2018-09-15T18:59:36.104Z,4.30
2018-09-15T19:02:04.249Z,3.87
2018-09-15T19:04:32.353Z,2.20
2018-09-15T19:07:00.458Z,2.63
2018-09-15T19:09:28.662Z,2.17
2018-09-15T19:11:56.745Z,2.87
2018-09-15T19:14:24.845Z,3.10
2018-09-15T19:16:52.931Z,3.63
2018-09-15T19:19:21.028Z,2.67
2018-09-15T19:21:49.473Z,2.10
2018-09-15T19:24:17.576Z,2.40
2018-09-15T19:26:45.721Z,2.33
2018-09-15T19:29:13.796Z,2.97
2018-09-15T19:31:41.980Z,3.30
2018-09-15T19:34:10.078Z,3.13
2018-09-15T19:36:38.194Z,3.50
2018-09-15T19:39:09.845Z,4.53
2018-09-15T19:41:37.997Z,3.20
2018-09-15T19:44:06.113Z,3.50
2018-09-15T19:46:34.265Z,3.50
2018-09-15T19:49:02.352Z,3.80
2018-09-15T19:51:30.525Z,3.00
2018-09-15T19:53:58.718Z,3.70
2018-09-15T19:56:27.006Z,3.30
2018-09-15T19:58:55.077Z,3.93
2018-09-15T20:01:23.221Z,4.27
2018-09-15T20:03:51.349Z,3.73
2018-09-15T20:06:19.450Z,4.30
2018-09-15T20:08:47.557Z,6.27
2018-09-15T20:11:15.635Z,3.70
2018-09-15T20:13:43.725Z,2.80
2018-09-15T20:16:10.924Z,4.13
2018-09-15T20:18:38.112Z,4.63
2018-09-15T20:21:05.366Z,4.00
2018-09-15T20:23:33.493Z,6.63
2018-09-15T20:26:01.575Z,4.50
2018-09-15T20:28:29.649Z,3.43
2018-09-15T20:30:57.729Z,4.60
2018-09-15T20:33:25.814Z,4.17
2018-09-15T20:35:53.902Z,3.30
2018-09-15T20:38:22.000Z,3.10
2018-09-15T20:40:50.046Z,4.87
2018-09-15T20:43:18.186Z,4.33
2018-09-15T20:45:46.282Z,3.50
2018-09-15T20:48:14.421Z,3.87
2018-09-15T20:50:42.521Z,3.93
2018-09-15T20:53:10.638Z,3.37
2018-09-15T20:55:38.741Z,4.57
2018-09-15T20:58:06.831Z,3.60
2018-09-15T21:00:34.915Z,5.53
2018-09-15T21:03:03.025Z,3.73
2018-09-15T21:05:31.116Z,5.20
2018-09-15T21:07:59.232Z,3.37
2018-09-15T21:10:27.317Z,3.20
2018-09-15T21:12:55.413Z,3.33
2018-09-15T21:15:23.514Z,3.13
2018-09-15T21:17:51.585Z,3.93
2018-09-15T21:20:19.661Z,2.97
2018-09-15T21:22:47.761Z,3.90
2018-09-15T21:25:15.873Z,3.83
2018-09-15T21:27:43.973Z,4.20
2018-09-15T21:30:12.121Z,5.40
2018-09-15T21:32:40.219Z,3.77
2018-09-15T21:35:08.302Z,3.87
2018-09-15T21:37:36.456Z,3.97
2018-09-15T21:40:04.537Z,3.10
2018-09-15T21:42:32.613Z,3.97
2018-09-15T21:45:00.697Z,3.73
2018-09-15T21:47:28.808Z,3.13
2018-09-15T21:49:56.987Z,3.57
2018-09-15T21:52:25.073Z,5.50
2018-09-15T21:54:53.167Z,3.30
2018-09-15T21:57:21.240Z,3.37
2018-09-15T21:59:49.313Z,3.93
2018-09-15T22:02:17.427Z,3.73
2018-09-15T22:04:45.493Z,3.13
2018-09-15T22:07:13.558Z,4.23
2018-09-15T22:09:41.670Z,3.20
2018-09-15T22:12:09.746Z,3.83
2018-09-15T22:14:37.809Z,3.27
2018-09-15T22:17:05.916Z,3.40
2018-09-15T22:19:34.054Z,3.17
2018-09-15T22:22:02.168Z,3.40
2018-09-15T22:24:30.267Z,4.33
2018-09-15T22:26:58.337Z,3.53
2018-09-15T22:29:26.408Z,3.90
2018-09-15T22:31:54.513Z,3.10
2018-09-15T22:34:22.589Z,4.27
2018-09-15T22:36:50.689Z,3.90
2018-09-15T22:39:19.001Z,4.00
2018-09-15T22:41:47.077Z,4.23
2018-09-15T22:44:15.159Z,3.83
2018-09-15T22:46:43.221Z,3.40
2018-09-15T22:49:11.314Z,4.00
2018-09-15T22:51:39.420Z,3.63
2018-09-15T22:54:07.529Z,3.90
2018-09-15T22:56:35.629Z,4.57
2018-09-15T22:59:03.710Z,4.53
2018-09-15T23:01:31.820Z,4.57
2018-09-15T23:04:05.682Z,4.40
2018-09-15T23:06:34.065Z,3.87
2018-09-15T23:09:02.193Z,4.33
2018-09-15T23:11:30.293Z,5.37
2018-09-15T23:13:58.331Z,4.43
2018-09-15T23:16:26.388Z,3.90
2018-09-15T23:18:54.476Z,3.90
2018-09-15T23:21:22.548Z,4.33
2018-09-15T23:23:50.704Z,5.00
2018-09-15T23:26:18.768Z,4.97
2018-09-15T23:28:46.847Z,4.80
2018-09-15T23:31:14.892Z,5.07
2018-09-15T23:33:42.958Z,4.70
2018-09-15T23:36:11.035Z,4.27
2018-09-15T23:38:39.175Z,4.13
2018-09-15T23:41:07.569Z,4.03
2018-09-15T23:43:35.640Z,4.13
2018-09-15T23:46:03.748Z,4.43
2018-09-15T23:48:31.800Z,4.30
2018-09-15T23:50:59.895Z,4.77
2018-09-15T23:53:27.935Z,4.70
2018-09-15T23:55:55.989Z,4.27
2018-09-15T23:58:24.058Z,4.83
